sensor_id;sensor_type;location;lat;lon;timestamp;P1;durP1;ratioP1;P2;durP2;ratioP2
20271;SDS011;10295;49.812;9.866;2023-04-15T00:02:15;13.90;;;4.93;;
20271;SDS011;10295;49.812;9.866;2023-04-15T00:04:44;11.60;;;5.70;;
20271;SDS011;10295;49.812;9.866;2023-04-15T00:07:11;10.80;;;4.90;;
20271;SDS011;10295;49.812;9.866;2023-04-15T00:09:40;12.13;;;5.13;;
20271;SDS011;10295;49.812;9.866;2023-04-15T00:12:10;12.80;;;5.80;;
20271;SDS011;10295;49.812;9.866;2023-04-15T00:14:37;11.87;;;5.13;;
20271;SDS011;10295;49.812;9.866;2023-04-15T00:17:05;14.70;;;5.97;;
20271;SDS011;10295;49.812;9.866;2023-04-15T00:19:32;10.90;;;5.40;;
20271;SDS011;10295;49.812;9.866;2023-04-15T00:21:59;13.83;;;6.20;;
20271;SDS011;10295;49.812;9.866;2023-04-15T00:24:27;14.50;;;6.50;;
20271;SDS011;10295;49.812;9.866;2023-04-15T00:26:54;11.57;;;6.07;;
20271;SDS011;10295;49.812;9.866;2023-04-15T00:29:21;13.03;;;5.13;;
20271;SDS011;10295;49.812;9.866;2023-04-15T00:31:49;13.60;;;5.80;;
20271;SDS011;10295;49.812;9.866;2023-04-15T00:34:16;16.93;;;8.00;;
20271;SDS011;10295;49.812;9.866;2023-04-15T00:36:43;15.80;;;6.93;;
20271;SDS011;10295;49.812;9.866;2023-04-15T00:39:10;16.80;;;6.50;;
20271;SDS011;10295;49.812;9.866;2023-04-15T00:41:38;14.83;;;5.93;;
20271;SDS011;10295;49.812;9.866;2023-04-15T00:44:05;13.53;;;5.90;;
20271;SDS011;10295;49.812;9.866;2023-04-15T00:46:34;11.40;;;5.63;;
20271;SDS011;10295;49.812;9.866;2023-04-15T00:49:02;14.43;;;5.80;;
20271;SDS011;10295;49.812;9.866;2023-04-15T00:51:30;15.00;;;6.03;;
20271;SDS011;10295;49.812;9.866;2023-04-15T00:53:58;14.57;;;6.47;;
20271;SDS011;10295;49.812;9.866;2023-04-15T00:56:26;14.53;;;6.53;;
20271;SDS011;10295;49.812;9.866;2023-04-15T00:58:55;15.40;;;6.90;;
20271;SDS011;10295;49.812;9.866;2023-04-15T01:01:23;13.57;;;6.10;;
20271;SDS011;10295;49.812;9.866;2023-04-15T01:03:50;12.53;;;5.80;;
20271;SDS011;10295;49.812;9.866;2023-04-15T01:06:18;11.27;;;5.90;;
20271;SDS011;10295;49.812;9.866;2023-04-15T01:08:45;12.83;;;6.30;;
20271;SDS011;10295;49.812;9.866;2023-04-15T01:11:13;14.03;;;6.80;;
20271;SDS011;10295;49.812;9.866;2023-04-15T01:13:40;13.33;;;5.73;;
20271;SDS011;10295;49.812;9.866;2023-04-15T01:16:07;13.77;;;6.13;;
20271;SDS011;10295;49.812;9.866;2023-04-15T01:18:35;13.70;;;6.40;;
20271;SDS011;10295;49.812;9.866;2023-04-15T01:21:03;12.30;;;6.50;;
20271;SDS011;10295;49.812;9.866;2023-04-15T01:23:31;13.83;;;6.57;;
20271;SDS011;10295;49.812;9.866;2023-04-15T01:25:59;18.23;;;7.93;;
20271;SDS011;10295;49.812;9.866;2023-04-15T01:28:26;24.40;;;10.33;;
20271;SDS011;10295;49.812;9.866;2023-04-15T01:31:10;13.23;;;6.60;;
20271;SDS011;10295;49.812;9.866;2023-04-15T01:33:39;15.47;;;7.00;;
20271;SDS011;10295;49.812;9.866;2023-04-15T01:36:07;18.40;;;8.40;;
20271;SDS011;10295;49.812;9.866;2023-04-15T01:38:36;17.47;;;8.90;;
20271;SDS011;10295;49.812;9.866;2023-04-15T01:41:03;18.87;;;8.00;;
20271;SDS011;10295;49.812;9.866;2023-04-15T01:43:35;15.60;;;7.80;;
20271;SDS011;10295;49.812;9.866;2023-04-15T01:46:03;17.57;;;8.63;;
20271;SDS011;10295;49.812;9.866;2023-04-15T01:48:30;19.40;;;8.23;;
20271;SDS011;10295;49.812;9.866;2023-04-15T01:50:57;16.67;;;7.50;;
20271;SDS011;10295;49.812;9.866;2023-04-15T01:53:24;16.57;;;7.23;;
20271;SDS011;10295;49.812;9.866;2023-04-15T01:55:51;17.60;;;7.97;;
20271;SDS011;10295;49.812;9.866;2023-04-15T01:58:19;16.57;;;7.40;;
20271;SDS011;10295;49.812;9.866;2023-04-15T02:00:47;14.23;;;6.43;;
20271;SDS011;10295;49.812;9.866;2023-04-15T02:03:14;15.73;;;7.43;;
20271;SDS011;10295;49.812;9.866;2023-04-15T02:05:42;25.80;;;11.20;;
20271;SDS011;10295;49.812;9.866;2023-04-15T02:08:09;20.23;;;9.70;;
20271;SDS011;10295;49.812;9.866;2023-04-15T02:10:37;23.57;;;9.50;;
20271;SDS011;10295;49.812;9.866;2023-04-15T02:13:04;19.27;;;9.03;;
20271;SDS011;10295;49.812;9.866;2023-04-15T02:15:31;16.87;;;8.00;;
20271;SDS011;10295;49.812;9.866;2023-04-15T02:17:59;17.63;;;8.00;;
20271;SDS011;10295;49.812;9.866;2023-04-15T02:20:27;20.70;;;8.50;;
20271;SDS011;10295;49.812;9.866;2023-04-15T02:22:55;18.70;;;9.00;;
20271;SDS011;10295;49.812;9.866;2023-04-15T02:25:23;44.97;;;16.90;;
20271;SDS011;10295;49.812;9.866;2023-04-15T02:27:50;38.97;;;16.83;;
20271;SDS011;10295;49.812;9.866;2023-04-15T02:30:18;28.13;;;11.50;;
20271;SDS011;10295;49.812;9.866;2023-04-15T02:32:45;18.37;;;7.63;;
20271;SDS011;10295;49.812;9.866;2023-04-15T02:35:13;17.33;;;7.73;;
20271;SDS011;10295;49.812;9.866;2023-04-15T02:37:40;15.73;;;7.60;;
20271;SDS011;10295;49.812;9.866;2023-04-15T02:40:11;17.37;;;7.67;;
20271;SDS011;10295;49.812;9.866;2023-04-15T02:42:39;16.43;;;7.70;;
20271;SDS011;10295;49.812;9.866;2023-04-15T02:45:06;14.27;;;7.50;;
20271;SDS011;10295;49.812;9.866;2023-04-15T02:47:34;14.30;;;7.57;;
20271;SDS011;10295;49.812;9.866;2023-04-15T02:50:02;14.90;;;7.50;;
20271;SDS011;10295;49.812;9.866;2023-04-15T02:52:29;14.37;;;7.30;;
20271;SDS011;10295;49.812;9.866;2023-04-15T02:54:56;16.00;;;6.90;;
20271;SDS011;10295;49.812;9.866;2023-04-15T02:57:26;18.43;;;9.07;;
20271;SDS011;10295;49.812;9.866;2023-04-15T02:59:54;16.57;;;8.33;;
20271;SDS011;10295;49.812;9.866;2023-04-15T03:02:21;17.50;;;8.77;;
20271;SDS011;10295;49.812;9.866;2023-04-15T03:04:48;16.37;;;8.10;;
20271;SDS011;10295;49.812;9.866;2023-04-15T03:07:16;17.93;;;7.60;;
20271;SDS011;10295;49.812;9.866;2023-04-15T03:09:44;14.90;;;7.60;;
20271;SDS011;10295;49.812;9.866;2023-04-15T03:12:12;14.73;;;6.53;;
20271;SDS011;10295;49.812;9.866;2023-04-15T03:14:40;15.10;;;7.10;;
20271;SDS011;10295;49.812;9.866;2023-04-15T03:17:07;16.53;;;6.97;;
20271;SDS011;10295;49.812;9.866;2023-04-15T03:19:34;15.13;;;7.00;;
20271;SDS011;10295;49.812;9.866;2023-04-15T03:22:01;13.57;;;6.87;;
20271;SDS011;10295;49.812;9.866;2023-04-15T03:24:28;14.70;;;7.20;;
20271;SDS011;10295;49.812;9.866;2023-04-15T03:26:56;16.03;;;7.17;;
20271;SDS011;10295;49.812;9.866;2023-04-15T03:29:23;16.60;;;7.27;;
20271;SDS011;10295;49.812;9.866;2023-04-15T03:31:51;16.03;;;7.40;;
20271;SDS011;10295;49.812;9.866;2023-04-15T03:34:18;16.13;;;6.77;;
20271;SDS011;10295;49.812;9.866;2023-04-15T03:36:46;14.87;;;7.00;;
20271;SDS011;10295;49.812;9.866;2023-04-15T03:39:13;14.83;;;6.80;;
20271;SDS011;10295;49.812;9.866;2023-04-15T03:41:40;15.43;;;7.03;;
20271;SDS011;10295;49.812;9.866;2023-04-15T03:44:07;14.73;;;6.90;;
20271;SDS011;10295;49.812;9.866;2023-04-15T03:46:34;16.13;;;6.57;;
20271;SDS011;10295;49.812;9.866;2023-04-15T03:49:02;14.10;;;6.47;;
20271;SDS011;10295;49.812;9.866;2023-04-15T03:51:29;12.73;;;6.63;;
20271;SDS011;10295;49.812;9.866;2023-04-15T03:53:56;13.63;;;6.33;;
20271;SDS011;10295;49.812;9.866;2023-04-15T03:56:23;15.73;;;6.33;;
20271;SDS011;10295;49.812;9.866;2023-04-15T03:58:51;15.03;;;6.73;;
20271;SDS011;10295;49.812;9.866;2023-04-15T04:01:18;20.87;;;7.00;;
20271;SDS011;10295;49.812;9.866;2023-04-15T04:03:45;12.90;;;6.37;;
20271;SDS011;10295;49.812;9.866;2023-04-15T04:06:13;12.23;;;6.23;;
20271;SDS011;10295;49.812;9.866;2023-04-15T04:08:40;16.20;;;6.63;;
20271;SDS011;10295;49.812;9.866;2023-04-15T04:11:07;12.57;;;6.07;;
20271;SDS011;10295;49.812;9.866;2023-04-15T04:13:35;12.33;;;5.87;;
20271;SDS011;10295;49.812;9.866;2023-04-15T04:16:02;15.00;;;6.83;;
20271;SDS011;10295;49.812;9.866;2023-04-15T04:18:30;14.43;;;6.83;;
20271;SDS011;10295;49.812;9.866;2023-04-15T04:20:58;14.13;;;6.73;;
20271;SDS011;10295;49.812;9.866;2023-04-15T04:23:25;13.10;;;6.40;;
20271;SDS011;10295;49.812;9.866;2023-04-15T04:25:52;16.97;;;7.00;;
20271;SDS011;10295;49.812;9.866;2023-04-15T04:28:19;13.83;;;6.30;;
20271;SDS011;10295;49.812;9.866;2023-04-15T04:30:47;14.67;;;6.90;;
20271;SDS011;10295;49.812;9.866;2023-04-15T04:33:14;14.00;;;6.37;;
20271;SDS011;10295;49.812;9.866;2023-04-15T04:35:41;13.33;;;5.73;;
20271;SDS011;10295;49.812;9.866;2023-04-15T04:38:08;12.63;;;5.83;;
20271;SDS011;10295;49.812;9.866;2023-04-15T04:40:36;17.60;;;6.17;;
20271;SDS011;10295;49.812;9.866;2023-04-15T04:43:03;13.60;;;6.23;;
20271;SDS011;10295;49.812;9.866;2023-04-15T04:45:30;13.77;;;6.17;;
20271;SDS011;10295;49.812;9.866;2023-04-15T04:47:57;13.57;;;6.80;;
20271;SDS011;10295;49.812;9.866;2023-04-15T04:50:24;15.83;;;7.13;;
20271;SDS011;10295;49.812;9.866;2023-04-15T04:52:52;15.57;;;6.77;;
20271;SDS011;10295;49.812;9.866;2023-04-15T04:55:19;14.57;;;6.40;;
20271;SDS011;10295;49.812;9.866;2023-04-15T04:57:46;14.80;;;6.43;;
20271;SDS011;10295;49.812;9.866;2023-04-15T05:00:13;13.97;;;6.30;;
20271;SDS011;10295;49.812;9.866;2023-04-15T05:02:41;13.80;;;6.30;;
20271;SDS011;10295;49.812;9.866;2023-04-15T05:05:09;12.97;;;6.53;;
20271;SDS011;10295;49.812;9.866;2023-04-15T05:07:37;12.83;;;5.90;;
20271;SDS011;10295;49.812;9.866;2023-04-15T05:10:05;12.17;;;5.73;;
20271;SDS011;10295;49.812;9.866;2023-04-15T05:12:32;13.43;;;6.53;;
20271;SDS011;10295;49.812;9.866;2023-04-15T05:14:59;13.97;;;6.03;;
20271;SDS011;10295;49.812;9.866;2023-04-15T05:17:26;13.93;;;5.63;;
20271;SDS011;10295;49.812;9.866;2023-04-15T05:19:54;11.33;;;6.00;;
20271;SDS011;10295;49.812;9.866;2023-04-15T05:22:21;13.50;;;5.93;;
20271;SDS011;10295;49.812;9.866;2023-04-15T05:24:48;13.33;;;5.90;;
20271;SDS011;10295;49.812;9.866;2023-04-15T05:27:15;11.47;;;5.30;;
20271;SDS011;10295;49.812;9.866;2023-04-15T05:29:44;11.57;;;5.50;;
20271;SDS011;10295;49.812;9.866;2023-04-15T05:32:11;9.93;;;4.87;;
20271;SDS011;10295;49.812;9.866;2023-04-15T05:34:38;12.77;;;5.60;;
20271;SDS011;10295;49.812;9.866;2023-04-15T05:37:05;11.07;;;5.20;;
20271;SDS011;10295;49.812;9.866;2023-04-15T05:39:33;12.63;;;5.13;;
20271;SDS011;10295;49.812;9.866;2023-04-15T05:42:00;12.23;;;4.60;;
20271;SDS011;10295;49.812;9.866;2023-04-15T05:44:27;11.70;;;4.97;;
20271;SDS011;10295;49.812;9.866;2023-04-15T05:46:54;12.13;;;4.97;;
20271;SDS011;10295;49.812;9.866;2023-04-15T05:49:22;10.93;;;4.33;;
20271;SDS011;10295;49.812;9.866;2023-04-15T05:51:49;11.13;;;4.73;;
20271;SDS011;10295;49.812;9.866;2023-04-15T05:54:16;10.57;;;4.00;;
20271;SDS011;10295;49.812;9.866;2023-04-15T05:56:45;10.00;;;4.60;;
20271;SDS011;10295;49.812;9.866;2023-04-15T05:59:12;11.43;;;4.53;;
20271;SDS011;10295;49.812;9.866;2023-04-15T06:01:39;10.83;;;4.70;;
20271;SDS011;10295;49.812;9.866;2023-04-15T06:04:06;14.30;;;5.17;;
20271;SDS011;10295;49.812;9.866;2023-04-15T06:06:35;10.40;;;5.07;;
20271;SDS011;10295;49.812;9.866;2023-04-15T06:09:02;10.73;;;4.50;;
20271;SDS011;10295;49.812;9.866;2023-04-15T06:11:29;11.53;;;4.53;;
20271;SDS011;10295;49.812;9.866;2023-04-15T06:13:57;10.50;;;4.23;;
20271;SDS011;10295;49.812;9.866;2023-04-15T06:16:24;11.23;;;4.10;;
20271;SDS011;10295;49.812;9.866;2023-04-15T06:18:52;10.50;;;4.40;;
20271;SDS011;10295;49.812;9.866;2023-04-15T06:21:19;12.63;;;4.73;;
20271;SDS011;10295;49.812;9.866;2023-04-15T06:23:46;15.03;;;5.30;;
20271;SDS011;10295;49.812;9.866;2023-04-15T06:26:14;11.37;;;4.80;;
20271;SDS011;10295;49.812;9.866;2023-04-15T06:28:41;8.70;;;4.20;;
20271;SDS011;10295;49.812;9.866;2023-04-15T06:31:08;9.57;;;4.53;;
20271;SDS011;10295;49.812;9.866;2023-04-15T06:33:35;9.33;;;4.03;;
20271;SDS011;10295;49.812;9.866;2023-04-15T06:36:03;13.13;;;4.90;;
20271;SDS011;10295;49.812;9.866;2023-04-15T06:38:30;12.50;;;5.07;;
20271;SDS011;10295;49.812;9.866;2023-04-15T06:40:57;14.57;;;5.60;;
20271;SDS011;10295;49.812;9.866;2023-04-15T06:43:24;12.93;;;5.40;;
20271;SDS011;10295;49.812;9.866;2023-04-15T06:45:51;11.93;;;5.10;;
20271;SDS011;10295;49.812;9.866;2023-04-15T06:48:18;11.73;;;4.90;;
20271;SDS011;10295;49.812;9.866;2023-04-15T06:50:46;9.30;;;4.50;;
20271;SDS011;10295;49.812;9.866;2023-04-15T06:53:13;10.50;;;4.20;;
20271;SDS011;10295;49.812;9.866;2023-04-15T06:55:40;8.87;;;4.30;;
20271;SDS011;10295;49.812;9.866;2023-04-15T06:58:08;11.97;;;4.70;;
20271;SDS011;10295;49.812;9.866;2023-04-15T07:00:35;10.47;;;4.63;;
20271;SDS011;10295;49.812;9.866;2023-04-15T07:03:04;10.40;;;4.20;;
20271;SDS011;10295;49.812;9.866;2023-04-15T07:05:31;12.17;;;4.60;;
20271;SDS011;10295;49.812;9.866;2023-04-15T07:07:58;10.53;;;4.53;;
20271;SDS011;10295;49.812;9.866;2023-04-15T07:10:26;9.63;;;3.90;;
20271;SDS011;10295;49.812;9.866;2023-04-15T07:12:53;8.90;;;4.37;;
20271;SDS011;10295;49.812;9.866;2023-04-15T07:15:20;8.20;;;3.90;;
20271;SDS011;10295;49.812;9.866;2023-04-15T07:17:47;11.73;;;4.43;;
20271;SDS011;10295;49.812;9.866;2023-04-15T07:20:15;10.20;;;4.70;;
20271;SDS011;10295;49.812;9.866;2023-04-15T07:22:42;10.57;;;4.40;;
20271;SDS011;10295;49.812;9.866;2023-04-15T07:25:09;10.87;;;4.60;;
20271;SDS011;10295;49.812;9.866;2023-04-15T07:27:37;9.20;;;4.57;;
20271;SDS011;10295;49.812;9.866;2023-04-15T07:30:04;9.53;;;4.47;;
20271;SDS011;10295;49.812;9.866;2023-04-15T07:32:31;11.63;;;4.50;;
20271;SDS011;10295;49.812;9.866;2023-04-15T07:34:58;9.83;;;3.90;;
20271;SDS011;10295;49.812;9.866;2023-04-15T07:37:27;10.27;;;4.60;;
20271;SDS011;10295;49.812;9.866;2023-04-15T07:39:54;11.30;;;4.77;;
20271;SDS011;10295;49.812;9.866;2023-04-15T07:42:22;9.67;;;4.70;;
20271;SDS011;10295;49.812;9.866;2023-04-15T07:44:50;10.07;;;4.80;;
20271;SDS011;10295;49.812;9.866;2023-04-15T07:47:17;12.50;;;4.20;;
20271;SDS011;10295;49.812;9.866;2023-04-15T07:49:44;9.90;;;3.90;;
20271;SDS011;10295;49.812;9.866;2023-04-15T07:52:12;11.60;;;4.10;;
20271;SDS011;10295;49.812;9.866;2023-04-15T07:54:39;10.00;;;4.50;;
20271;SDS011;10295;49.812;9.866;2023-04-15T07:57:06;9.97;;;4.00;;
20271;SDS011;10295;49.812;9.866;2023-04-15T07:59:34;14.57;;;4.50;;
20271;SDS011;10295;49.812;9.866;2023-04-15T08:02:01;10.13;;;4.17;;
20271;SDS011;10295;49.812;9.866;2023-04-15T08:04:28;12.00;;;4.53;;
20271;SDS011;10295;49.812;9.866;2023-04-15T08:06:56;10.93;;;4.37;;
20271;SDS011;10295;49.812;9.866;2023-04-15T08:09:24;9.23;;;4.27;;
20271;SDS011;10295;49.812;9.866;2023-04-15T08:11:52;8.40;;;3.80;;
20271;SDS011;10295;49.812;9.866;2023-04-15T08:14:19;10.47;;;4.30;;
20271;SDS011;10295;49.812;9.866;2023-04-15T08:16:46;8.87;;;3.70;;
20271;SDS011;10295;49.812;9.866;2023-04-15T08:19:13;9.00;;;3.77;;
20271;SDS011;10295;49.812;9.866;2023-04-15T08:21:41;10.70;;;3.73;;
20271;SDS011;10295;49.812;9.866;2023-04-15T08:24:08;9.00;;;3.80;;
20271;SDS011;10295;49.812;9.866;2023-04-15T08:26:36;8.40;;;3.37;;
20271;SDS011;10295;49.812;9.866;2023-04-15T08:29:03;11.73;;;3.67;;
20271;SDS011;10295;49.812;9.866;2023-04-15T08:31:30;7.50;;;3.23;;
20271;SDS011;10295;49.812;9.866;2023-04-15T08:33:57;8.90;;;3.50;;
20271;SDS011;10295;49.812;9.866;2023-04-15T08:36:25;7.30;;;3.37;;
20271;SDS011;10295;49.812;9.866;2023-04-15T08:38:52;8.53;;;3.60;;
20271;SDS011;10295;49.812;9.866;2023-04-15T08:41:23;7.57;;;3.57;;
20271;SDS011;10295;49.812;9.866;2023-04-15T08:44:00;9.03;;;3.30;;
20271;SDS011;10295;49.812;9.866;2023-04-15T08:46:28;9.53;;;3.50;;
20271;SDS011;10295;49.812;9.866;2023-04-15T08:48:56;8.77;;;3.47;;
20271;SDS011;10295;49.812;9.866;2023-04-15T08:51:24;9.07;;;3.60;;
20271;SDS011;10295;49.812;9.866;2023-04-15T08:53:51;8.13;;;3.23;;
20271;SDS011;10295;49.812;9.866;2023-04-15T08:56:18;7.20;;;3.20;;
20271;SDS011;10295;49.812;9.866;2023-04-15T08:58:50;9.03;;;3.27;;
20271;SDS011;10295;49.812;9.866;2023-04-15T09:01:17;9.13;;;3.80;;
20271;SDS011;10295;49.812;9.866;2023-04-15T09:03:45;10.73;;;3.80;;
20271;SDS011;10295;49.812;9.866;2023-04-15T09:06:17;9.23;;;3.50;;
20271;SDS011;10295;49.812;9.866;2023-04-15T09:08:44;8.80;;;3.50;;
20271;SDS011;10295;49.812;9.866;2023-04-15T09:11:12;7.93;;;3.60;;
20271;SDS011;10295;49.812;9.866;2023-04-15T09:13:39;7.60;;;3.47;;
20271;SDS011;10295;49.812;9.866;2023-04-15T09:16:06;9.27;;;3.67;;
20271;SDS011;10295;49.812;9.866;2023-04-15T09:18:35;9.23;;;3.37;;
20271;SDS011;10295;49.812;9.866;2023-04-15T09:21:12;9.23;;;3.50;;
20271;SDS011;10295;49.812;9.866;2023-04-15T09:23:40;7.90;;;3.47;;
20271;SDS011;10295;49.812;9.866;2023-04-15T09:26:17;11.63;;;3.20;;
20271;SDS011;10295;49.812;9.866;2023-04-15T09:28:44;8.10;;;3.13;;
20271;SDS011;10295;49.812;9.866;2023-04-15T09:31:11;7.67;;;3.33;;
20271;SDS011;10295;49.812;9.866;2023-04-15T09:33:53;8.63;;;2.67;;
20271;SDS011;10295;49.812;9.866;2023-04-15T09:36:21;6.17;;;2.30;;
20271;SDS011;10295;49.812;9.866;2023-04-15T09:38:56;6.70;;;2.30;;
20271;SDS011;10295;49.812;9.866;2023-04-15T09:41:24;6.83;;;2.70;;
20271;SDS011;10295;49.812;9.866;2023-04-15T09:43:52;6.30;;;2.50;;
20271;SDS011;10295;49.812;9.866;2023-04-15T09:46:19;7.43;;;2.37;;
20271;SDS011;10295;49.812;9.866;2023-04-15T09:48:46;7.53;;;2.90;;
20271;SDS011;10295;49.812;9.866;2023-04-15T09:51:36;8.50;;;2.97;;
20271;SDS011;10295;49.812;9.866;2023-04-15T09:54:03;7.80;;;2.77;;
20271;SDS011;10295;49.812;9.866;2023-04-15T09:56:34;6.83;;;2.90;;
20271;SDS011;10295;49.812;9.866;2023-04-15T09:59:06;9.07;;;2.93;;
20271;SDS011;10295;49.812;9.866;2023-04-15T10:01:33;6.63;;;2.97;;
20271;SDS011;10295;49.812;9.866;2023-04-15T10:04:05;9.13;;;3.30;;
20271;SDS011;10295;49.812;9.866;2023-04-15T10:06:33;7.00;;;3.00;;
20271;SDS011;10295;49.812;9.866;2023-04-15T10:09:00;7.30;;;3.07;;
20271;SDS011;10295;49.812;9.866;2023-04-15T10:11:28;7.80;;;3.30;;
20271;SDS011;10295;49.812;9.866;2023-04-15T10:13:56;9.43;;;3.30;;
20271;SDS011;10295;49.812;9.866;2023-04-15T10:16:26;5.83;;;2.50;;
20271;SDS011;10295;49.812;9.866;2023-04-15T10:18:56;6.27;;;2.30;;
20271;SDS011;10295;49.812;9.866;2023-04-15T10:21:24;6.50;;;2.00;;
20271;SDS011;10295;49.812;9.866;2023-04-15T10:23:51;3.50;;;1.40;;
20271;SDS011;10295;49.812;9.866;2023-04-15T10:26:18;5.43;;;1.43;;
20271;SDS011;10295;49.812;9.866;2023-04-15T10:28:46;4.17;;;1.40;;
20271;SDS011;10295;49.812;9.866;2023-04-15T10:31:14;1.93;;;1.10;;
20271;SDS011;10295;49.812;9.866;2023-04-15T10:33:41;3.07;;;1.10;;
20271;SDS011;10295;49.812;9.866;2023-04-15T10:36:10;3.53;;;1.40;;
20271;SDS011;10295;49.812;9.866;2023-04-15T10:38:41;4.30;;;1.40;;
20271;SDS011;10295;49.812;9.866;2023-04-15T10:41:12;4.23;;;1.30;;
20271;SDS011;10295;49.812;9.866;2023-04-15T10:43:55;6.13;;;1.40;;
20271;SDS011;10295;49.812;9.866;2023-04-15T10:46:45;5.13;;;1.73;;
20271;SDS011;10295;49.812;9.866;2023-04-15T10:49:13;4.27;;;1.80;;
20271;SDS011;10295;49.812;9.866;2023-04-15T10:51:43;4.57;;;1.37;;
20271;SDS011;10295;49.812;9.866;2023-04-15T10:59:29;4.23;;;1.30;;
20271;SDS011;10295;49.812;9.866;2023-04-15T11:02:00;2.00;;;0.90;;
20271;SDS011;10295;49.812;9.866;2023-04-15T11:07:13;2.23;;;0.93;;
20271;SDS011;10295;49.812;9.866;2023-04-15T11:09:40;2.20;;;1.00;;
20271;SDS011;10295;49.812;9.866;2023-04-15T11:12:07;1.80;;;0.70;;
20271;SDS011;10295;49.812;9.866;2023-04-15T11:14:39;3.20;;;1.10;;
20271;SDS011;10295;49.812;9.866;2023-04-15T11:17:08;4.40;;;1.00;;
20271;SDS011;10295;49.812;9.866;2023-04-15T11:19:38;3.00;;;1.10;;
20271;SDS011;10295;49.812;9.866;2023-04-15T11:22:09;6.33;;;1.80;;
20271;SDS011;10295;49.812;9.866;2023-04-15T11:24:45;8.87;;;3.20;;
20271;SDS011;10295;49.812;9.866;2023-04-15T11:27:22;4.30;;;1.30;;
20271;SDS011;10295;49.812;9.866;2023-04-15T11:29:50;5.93;;;1.53;;
20271;SDS011;10295;49.812;9.866;2023-04-15T11:32:18;7.80;;;2.73;;
20271;SDS011;10295;49.812;9.866;2023-04-15T11:34:45;6.60;;;2.50;;
20271;SDS011;10295;49.812;9.866;2023-04-15T11:37:14;5.03;;;2.00;;
20271;SDS011;10295;49.812;9.866;2023-04-15T11:39:41;5.83;;;2.20;;
20271;SDS011;10295;49.812;9.866;2023-04-15T11:42:17;7.20;;;2.70;;
20271;SDS011;10295;49.812;9.866;2023-04-15T11:44:44;6.37;;;2.60;;
20271;SDS011;10295;49.812;9.866;2023-04-15T11:47:21;7.93;;;2.67;;
20271;SDS011;10295;49.812;9.866;2023-04-15T11:49:48;5.23;;;2.20;;
20271;SDS011;10295;49.812;9.866;2023-04-15T11:52:16;5.90;;;2.00;;
20271;SDS011;10295;49.812;9.866;2023-04-15T11:54:44;5.23;;;1.80;;
20271;SDS011;10295;49.812;9.866;2023-04-15T11:57:11;4.50;;;1.70;;
20271;SDS011;10295;49.812;9.866;2023-04-15T11:59:42;4.57;;;1.60;;
20271;SDS011;10295;49.812;9.866;2023-04-15T12:02:11;5.63;;;1.90;;
20271;SDS011;10295;49.812;9.866;2023-04-15T12:04:39;6.07;;;1.70;;
20271;SDS011;10295;49.812;9.866;2023-04-15T12:07:07;5.50;;;2.00;;
20271;SDS011;10295;49.812;9.866;2023-04-15T12:09:37;6.43;;;2.30;;
20271;SDS011;10295;49.812;9.866;2023-04-15T12:12:05;4.30;;;1.80;;
20271;SDS011;10295;49.812;9.866;2023-04-15T12:14:32;6.50;;;2.30;;
20271;SDS011;10295;49.812;9.866;2023-04-15T12:17:03;4.40;;;1.87;;
20271;SDS011;10295;49.812;9.866;2023-04-15T12:19:35;4.53;;;1.60;;
20271;SDS011;10295;49.812;9.866;2023-04-15T12:22:03;7.40;;;2.00;;
20271;SDS011;10295;49.812;9.866;2023-04-15T12:24:32;4.73;;;1.80;;
20271;SDS011;10295;49.812;9.866;2023-04-15T12:27:03;4.60;;;1.77;;
20271;SDS011;10295;49.812;9.866;2023-04-15T12:29:31;5.83;;;1.77;;
20271;SDS011;10295;49.812;9.866;2023-04-15T12:32:03;4.47;;;1.70;;
20271;SDS011;10295;49.812;9.866;2023-04-15T12:34:32;5.17;;;2.00;;
20271;SDS011;10295;49.812;9.866;2023-04-15T12:36:59;4.70;;;2.03;;
20271;SDS011;10295;49.812;9.866;2023-04-15T12:39:28;5.60;;;2.00;;
20271;SDS011;10295;49.812;9.866;2023-04-15T12:41:56;4.47;;;1.70;;
20271;SDS011;10295;49.812;9.866;2023-04-15T12:44:23;2.80;;;1.27;;
20271;SDS011;10295;49.812;9.866;2023-04-15T12:46:51;3.20;;;1.50;;
20271;SDS011;10295;49.812;9.866;2023-04-15T12:49:22;3.97;;;1.60;;
20271;SDS011;10295;49.812;9.866;2023-04-15T12:51:50;4.80;;;1.90;;
20271;SDS011;10295;49.812;9.866;2023-04-15T12:54:18;4.63;;;1.80;;
20271;SDS011;10295;49.812;9.866;2023-04-15T12:56:46;4.90;;;1.77;;
20271;SDS011;10295;49.812;9.866;2023-04-15T12:59:13;5.83;;;2.10;;
20271;SDS011;10295;49.812;9.866;2023-04-15T13:01:41;3.50;;;1.60;;
20271;SDS011;10295;49.812;9.866;2023-04-15T13:04:08;5.57;;;2.00;;
20271;SDS011;10295;49.812;9.866;2023-04-15T13:06:35;4.93;;;1.80;;
20271;SDS011;10295;49.812;9.866;2023-04-15T13:09:03;4.47;;;1.70;;
20271;SDS011;10295;49.812;9.866;2023-04-15T13:11:31;3.87;;;1.60;;
20271;SDS011;10295;49.812;9.866;2023-04-15T13:13:59;6.63;;;2.23;;
20271;SDS011;10295;49.812;9.866;2023-04-15T13:16:27;8.53;;;3.03;;
20271;SDS011;10295;49.812;9.866;2023-04-15T13:18:54;5.53;;;2.20;;
20271;SDS011;10295;49.812;9.866;2023-04-15T13:21:22;5.70;;;1.90;;
20271;SDS011;10295;49.812;9.866;2023-04-15T13:23:49;3.43;;;1.50;;
20271;SDS011;10295;49.812;9.866;2023-04-15T13:26:16;4.43;;;1.37;;
20271;SDS011;10295;49.812;9.866;2023-04-15T13:28:43;4.27;;;1.60;;
20271;SDS011;10295;49.812;9.866;2023-04-15T13:31:11;3.70;;;1.50;;
20271;SDS011;10295;49.812;9.866;2023-04-15T13:33:38;3.70;;;1.30;;
20271;SDS011;10295;49.812;9.866;2023-04-15T13:36:06;3.57;;;1.50;;
20271;SDS011;10295;49.812;9.866;2023-04-15T13:38:33;4.10;;;1.40;;
20271;SDS011;10295;49.812;9.866;2023-04-15T13:41:01;4.40;;;1.70;;
20271;SDS011;10295;49.812;9.866;2023-04-15T13:43:28;2.57;;;1.33;;
20271;SDS011;10295;49.812;9.866;2023-04-15T13:45:56;5.20;;;1.60;;
20271;SDS011;10295;49.812;9.866;2023-04-15T13:48:24;4.17;;;1.40;;
20271;SDS011;10295;49.812;9.866;2023-04-15T13:50:51;3.67;;;1.30;;
20271;SDS011;10295;49.812;9.866;2023-04-15T13:53:18;4.00;;;1.57;;
20271;SDS011;10295;49.812;9.866;2023-04-15T13:55:59;3.47;;;1.40;;
20271;SDS011;10295;49.812;9.866;2023-04-15T13:58:26;3.87;;;1.40;;
20271;SDS011;10295;49.812;9.866;2023-04-15T14:00:53;3.27;;;1.40;;
20271;SDS011;10295;49.812;9.866;2023-04-15T14:03:21;4.47;;;1.50;;
20271;SDS011;10295;49.812;9.866;2023-04-15T14:05:48;4.57;;;1.63;;
20271;SDS011;10295;49.812;9.866;2023-04-15T14:08:21;4.33;;;1.70;;
20271;SDS011;10295;49.812;9.866;2023-04-15T14:10:48;4.70;;;1.70;;
20271;SDS011;10295;49.812;9.866;2023-04-15T14:13:15;4.27;;;1.60;;
20271;SDS011;10295;49.812;9.866;2023-04-15T14:15:44;3.23;;;1.40;;
20271;SDS011;10295;49.812;9.866;2023-04-15T14:18:11;3.70;;;1.40;;
20271;SDS011;10295;49.812;9.866;2023-04-15T14:20:39;3.53;;;1.50;;
20271;SDS011;10295;49.812;9.866;2023-04-15T14:23:06;5.47;;;1.50;;
20271;SDS011;10295;49.812;9.866;2023-04-15T14:25:33;3.33;;;1.40;;
20271;SDS011;10295;49.812;9.866;2023-04-15T14:28:01;3.27;;;1.33;;
20271;SDS011;10295;49.812;9.866;2023-04-15T14:30:28;4.43;;;1.50;;
20271;SDS011;10295;49.812;9.866;2023-04-15T14:32:56;3.30;;;1.50;;
20271;SDS011;10295;49.812;9.866;2023-04-15T14:35:23;3.80;;;1.50;;
20271;SDS011;10295;49.812;9.866;2023-04-15T14:37:52;5.17;;;1.80;;
20271;SDS011;10295;49.812;9.866;2023-04-15T14:40:20;5.67;;;1.77;;
20271;SDS011;10295;49.812;9.866;2023-04-15T14:42:48;4.77;;;1.73;;
20271;SDS011;10295;49.812;9.866;2023-04-15T14:45:15;5.70;;;1.80;;
20271;SDS011;10295;49.812;9.866;2023-04-15T14:47:42;6.47;;;2.00;;
20271;SDS011;10295;49.812;9.866;2023-04-15T14:50:10;9.43;;;2.73;;
20271;SDS011;10295;49.812;9.866;2023-04-15T14:52:37;10.07;;;2.97;;
20271;SDS011;10295;49.812;9.866;2023-04-15T14:55:05;6.97;;;2.43;;